createdAt,value
2019-03-31T00:02:13.619Z,99.90
2019-03-31T00:04:44.087Z,99.90
2019-03-31T00:07:14.758Z,99.90
2019-03-31T00:09:45.174Z,99.90
2019-03-31T00:12:15.170Z,99.90
2019-03-31T00:14:45.253Z,99.90
2019-03-31T00:17:15.417Z,99.90
2019-03-31T00:19:45.698Z,99.90
2019-03-31T00:22:15.591Z,99.90
2019-03-31T00:24:46.705Z,99.90
2019-03-31T00:27:16.840Z,99.90
2019-03-31T00:29:47.035Z,99.90
2019-03-31T00:32:17.251Z,99.90
2019-03-31T00:34:47.330Z,99.90
2019-03-31T00:37:17.491Z,99.90
2019-03-31T00:39:47.653Z,99.90
2019-03-31T00:42:17.896Z,99.90
2019-03-31T00:44:48.135Z,99.90
2019-03-31T00:47:18.519Z,99.90
2019-03-31T00:49:48.744Z,99.90
2019-03-31T00:52:18.772Z,99.90
2019-03-31T00:54:49.052Z,99.90
2019-03-31T00:57:19.345Z,99.90
2019-03-31T00:59:49.393Z,99.90
2019-03-31T01:02:22.954Z,99.90
2019-03-31T01:04:53.193Z,99.90
2019-03-31T01:07:26.696Z,99.90
2019-03-31T01:09:58.268Z,99.90
2019-03-31T01:12:28.935Z,99.90
2019-03-31T01:14:59.190Z,99.90
2019-03-31T01:17:29.403Z,99.90
2019-03-31T01:20:00.148Z,99.90
2019-03-31T01:22:30.327Z,99.90
2019-03-31T01:25:00.574Z,99.90
2019-03-31T01:27:30.858Z,99.90
2019-03-31T01:30:01.244Z,99.90
2019-03-31T01:32:31.450Z,99.90
2019-03-31T01:35:01.555Z,99.90
2019-03-31T01:37:31.907Z,99.90
2019-03-31T01:40:01.898Z,99.90
2019-03-31T01:42:31.978Z,99.90
2019-03-31T01:45:02.003Z,99.90
2019-03-31T01:47:32.048Z,99.90
2019-03-31T01:50:02.302Z,99.90
2019-03-31T01:52:32.250Z,99.90
2019-03-31T01:55:02.259Z,99.90
2019-03-31T01:57:32.170Z,99.90
2019-03-31T02:00:02.143Z,99.90
2019-03-31T02:02:32.352Z,99.90
2019-03-31T02:05:02.734Z,99.90
2019-03-31T02:07:32.832Z,99.90
2019-03-31T02:10:04.018Z,99.90
2019-03-31T02:12:34.018Z,99.90
2019-03-31T02:15:05.619Z,99.90
2019-03-31T02:17:35.791Z,99.90
2019-03-31T02:20:07.059Z,99.90
2019-03-31T02:22:36.914Z,99.90
2019-03-31T02:25:06.990Z,99.90
2019-03-31T02:27:37.243Z,99.90
2019-03-31T02:30:08.790Z,99.90
2019-03-31T02:32:39.063Z,99.90
2019-03-31T02:35:09.240Z,99.90
2019-03-31T02:37:39.625Z,99.90
2019-03-31T02:40:09.678Z,99.90
2019-03-31T02:42:39.758Z,99.90
2019-03-31T02:45:10.126Z,99.90
2019-03-31T02:47:40.196Z,99.90
2019-03-31T02:50:11.924Z,99.90
2019-03-31T02:52:41.824Z,99.90
2019-03-31T02:55:12.198Z,99.90
2019-03-31T02:57:43.077Z,99.90
2019-03-31T03:00:13.303Z,99.90
2019-03-31T03:02:43.308Z,99.90
2019-03-31T03:05:19.673Z,99.90
2019-03-31T03:08:04.367Z,99.90
2019-03-31T03:10:35.979Z,99.90
2019-03-31T03:13:09.337Z,99.90
2019-03-31T03:15:47.436Z,99.90
2019-03-31T03:18:17.370Z,99.90
2019-03-31T03:20:47.448Z,99.90
2019-03-31T03:23:17.403Z,99.90
2019-03-31T03:25:55.958Z,99.90
2019-03-31T03:28:19.081Z,99.90
2019-03-31T03:30:49.352Z,99.90
2019-03-31T03:33:19.702Z,99.90
2019-03-31T03:35:50.030Z,99.90
2019-03-31T03:38:20.148Z,99.90
2019-03-31T03:40:50.362Z,99.90
2019-03-31T03:43:20.439Z,99.90
2019-03-31T03:45:50.520Z,99.90
2019-03-31T03:48:20.718Z,99.90
2019-03-31T03:50:50.751Z,99.90
2019-03-31T03:53:20.850Z,99.90
2019-03-31T03:55:50.804Z,99.90
2019-03-31T03:58:20.955Z,99.90
2019-03-31T04:00:51.252Z,99.90
2019-03-31T04:03:30.246Z,99.90
2019-03-31T04:05:53.381Z,99.90
2019-03-31T04:08:23.778Z,99.90
2019-03-31T04:11:25.773Z,99.90
2019-03-31T04:13:55.831Z,99.90
2019-03-31T04:16:26.720Z,99.90
2019-03-31T04:18:56.634Z,99.90
2019-03-31T04:21:27.265Z,99.90
2019-03-31T04:23:57.655Z,99.90
2019-03-31T04:26:27.890Z,99.90
2019-03-31T04:28:58.257Z,99.90
2019-03-31T04:31:28.206Z,99.90
2019-03-31T04:33:58.144Z,99.90
2019-03-31T04:36:28.182Z,99.90
2019-03-31T04:39:00.324Z,99.90
2019-03-31T04:41:30.346Z,99.90
2019-03-31T04:44:00.571Z,99.90
2019-03-31T04:46:30.590Z,99.90
2019-03-31T04:49:00.626Z,99.90
2019-03-31T04:51:30.985Z,99.90
2019-03-31T04:54:01.129Z,99.90
2019-03-31T04:56:31.355Z,99.90
2019-03-31T04:59:01.647Z,99.90
2019-03-31T05:01:31.643Z,99.90
2019-03-31T05:04:05.047Z,99.90
2019-03-31T05:06:33.521Z,99.90
2019-03-31T05:09:05.119Z,99.90
2019-03-31T05:11:35.190Z,99.90
2019-03-31T05:14:05.193Z,99.90
2019-03-31T05:16:35.357Z,99.90
2019-03-31T05:19:05.707Z,99.90
2019-03-31T05:21:35.947Z,99.90
2019-03-31T05:24:05.912Z,99.90
2019-03-31T05:26:36.013Z,99.90
2019-03-31T05:29:05.930Z,99.90
2019-03-31T05:31:36.044Z,99.90
2019-03-31T05:34:18.553Z,99.90
2019-03-31T05:36:37.942Z,99.90
2019-03-31T05:39:08.490Z,99.90
2019-03-31T05:41:38.655Z,99.90
2019-03-31T05:44:09.080Z,99.90
2019-03-31T05:46:38.979Z,99.90
2019-03-31T05:49:08.927Z,99.90
2019-03-31T05:51:39.057Z,99.90
2019-03-31T05:54:09.302Z,99.90
2019-03-31T05:56:39.359Z,99.90
2019-03-31T05:59:09.278Z,99.90
2019-03-31T06:01:39.272Z,99.90
2019-03-31T06:04:09.350Z,99.90
2019-03-31T06:06:39.566Z,99.90
2019-03-31T06:09:09.582Z,99.90
2019-03-31T06:11:39.875Z,99.90
2019-03-31T06:14:10.136Z,99.90
2019-03-31T06:16:40.192Z,99.90
2019-03-31T06:19:10.258Z,99.90
2019-03-31T06:21:40.303Z,99.90
2019-03-31T06:24:10.848Z,99.90
2019-03-31T06:26:40.765Z,99.90
2019-03-31T06:29:10.908Z,99.90
2019-03-31T06:31:41.212Z,99.90
2019-03-31T06:34:11.415Z,99.90
2019-03-31T06:36:41.485Z,99.90
2019-03-31T06:39:11.443Z,99.90
2019-03-31T06:41:41.419Z,99.90
2019-03-31T06:44:11.508Z,99.90
2019-03-31T06:46:41.506Z,99.90
2019-03-31T06:49:11.539Z,99.90
2019-03-31T06:51:41.621Z,99.90
2019-03-31T06:54:11.917Z,99.90
2019-03-31T06:56:41.928Z,99.90
2019-03-31T06:59:12.297Z,99.90
2019-03-31T07:01:42.619Z,99.90
2019-03-31T07:04:13.612Z,99.90
2019-03-31T07:06:43.679Z,99.90
2019-03-31T07:09:13.601Z,99.90
2019-03-31T07:11:43.785Z,99.90
2019-03-31T07:14:14.244Z,99.90
2019-03-31T07:16:44.310Z,99.90
2019-03-31T07:19:14.569Z,99.90
2019-03-31T07:21:44.840Z,99.90
2019-03-31T07:24:14.958Z,99.90
2019-03-31T07:26:44.978Z,99.90
2019-03-31T07:29:15.597Z,99.90
2019-03-31T07:31:45.626Z,99.90
2019-03-31T07:34:15.925Z,99.90
2019-03-31T07:36:45.997Z,99.90
2019-03-31T07:39:16.543Z,99.90
2019-03-31T07:41:46.941Z,99.90
2019-03-31T07:44:17.064Z,99.90
2019-03-31T07:46:47.594Z,99.90
2019-03-31T07:49:17.991Z,99.90
2019-03-31T07:51:48.174Z,99.90
2019-03-31T07:54:18.144Z,99.90
2019-03-31T07:56:48.222Z,99.90
2019-03-31T07:59:18.778Z,99.90
2019-03-31T08:01:48.798Z,99.90
2019-03-31T08:04:19.049Z,99.90
2019-03-31T08:06:49.432Z,99.90
2019-03-31T08:09:20.799Z,99.90
2019-03-31T08:11:50.902Z,99.90
2019-03-31T08:14:21.036Z,99.90
2019-03-31T08:16:51.409Z,99.90
2019-03-31T08:19:21.573Z,99.90
2019-03-31T08:21:51.663Z,99.90
2019-03-31T08:24:22.126Z,99.90
2019-03-31T08:26:52.166Z,99.90
2019-03-31T08:29:22.419Z,99.90
2019-03-31T08:31:52.660Z,99.90
2019-03-31T08:34:22.782Z,99.90
2019-03-31T08:36:52.888Z,99.90
2019-03-31T08:39:23.268Z,99.90
2019-03-31T08:41:53.593Z,99.90
2019-03-31T08:44:23.836Z,99.90
2019-03-31T08:46:54.074Z,99.90
2019-03-31T08:49:24.253Z,99.90
2019-03-31T08:51:54.491Z,99.90
2019-03-31T08:54:24.528Z,99.90
2019-03-31T08:56:55.074Z,99.90
2019-03-31T08:59:25.195Z,99.90
2019-03-31T09:01:55.267Z,99.90
2019-03-31T09:04:25.535Z,99.90
2019-03-31T09:06:55.703Z,99.90
2019-03-31T09:09:25.956Z,99.90
2019-03-31T09:11:56.177Z,99.90
2019-03-31T09:14:26.430Z,99.90
2019-03-31T09:16:56.415Z,99.90
2019-03-31T09:19:26.737Z,99.90
2019-03-31T09:21:56.745Z,99.90
2019-03-31T09:24:27.110Z,99.90
2019-03-31T09:26:57.295Z,99.90
2019-03-31T09:29:27.359Z,99.90
2019-03-31T09:31:57.571Z,99.90
2019-03-31T09:34:27.872Z,99.90
2019-03-31T09:36:57.951Z,99.90
2019-03-31T09:39:28.095Z,99.90
2019-03-31T09:41:58.428Z,99.90
2019-03-31T09:44:30.263Z,99.90
2019-03-31T09:47:01.032Z,97.40
2019-03-31T09:49:31.128Z,90.70
2019-03-31T09:52:01.511Z,87.00
2019-03-31T09:54:31.576Z,81.10
2019-03-31T09:57:01.854Z,64.70
2019-03-31T09:59:32.126Z,68.30
2019-03-31T10:02:02.288Z,88.50
2019-03-31T10:04:32.373Z,71.50
2019-03-31T10:07:02.805Z,73.50
2019-03-31T10:09:33.391Z,75.50
2019-03-31T10:12:03.749Z,66.70
2019-03-31T10:14:34.081Z,64.10
2019-03-31T10:17:04.183Z,67.70
2019-03-31T10:19:34.322Z,61.60
2019-03-31T10:22:04.616Z,61.40
2019-03-31T10:24:35.689Z,61.30
2019-03-31T10:27:05.612Z,57.60
2019-03-31T10:29:35.827Z,56.40
2019-03-31T10:32:05.962Z,54.10
2019-03-31T10:34:36.029Z,53.50
2019-03-31T10:37:06.252Z,51.10
2019-03-31T10:39:36.703Z,47.90
2019-03-31T10:42:06.957Z,50.50
2019-03-31T10:44:37.157Z,51.30
2019-03-31T10:47:07.316Z,52.00
2019-03-31T10:49:37.460Z,49.50
2019-03-31T10:52:07.649Z,49.40
2019-03-31T10:54:37.832Z,48.80
2019-03-31T10:57:08.205Z,46.50
2019-03-31T10:59:38.296Z,42.20
2019-03-31T11:02:08.441Z,36.90
2019-03-31T11:04:38.926Z,39.40
2019-03-31T11:07:09.066Z,41.60
2019-03-31T11:09:39.242Z,43.70
2019-03-31T11:12:09.496Z,45.50
2019-03-31T11:14:39.593Z,46.50
2019-03-31T11:17:09.828Z,44.40
2019-03-31T11:19:40.060Z,43.90
2019-03-31T11:22:24.105Z,44.90
2019-03-31T11:24:54.133Z,45.80
2019-03-31T11:27:24.441Z,45.90
2019-03-31T11:29:54.400Z,46.10
2019-03-31T11:32:24.481Z,46.20
2019-03-31T11:34:57.975Z,47.40
2019-03-31T11:37:28.280Z,49.30
2019-03-31T11:39:58.309Z,48.80
2019-03-31T11:42:28.394Z,45.30
2019-03-31T11:44:58.916Z,45.80
2019-03-31T11:47:29.154Z,47.20
2019-03-31T11:49:59.275Z,47.40
2019-03-31T11:52:29.646Z,47.60
2019-03-31T11:54:59.914Z,49.30
2019-03-31T11:57:29.939Z,52.10
2019-03-31T12:00:00.448Z,54.10
2019-03-31T12:02:30.500Z,53.80
2019-03-31T12:05:00.534Z,53.50
2019-03-31T12:07:30.799Z,52.00
2019-03-31T12:10:00.782Z,52.90
2019-03-31T12:12:31.159Z,53.30
2019-03-31T12:15:01.486Z,53.80
2019-03-31T12:17:31.686Z,52.30
2019-03-31T12:20:01.924Z,52.60
2019-03-31T12:22:32.131Z,52.60
2019-03-31T12:25:02.177Z,51.90
2019-03-31T12:27:32.476Z,53.30
2019-03-31T12:30:02.655Z,51.00
2019-03-31T12:32:38.144Z,48.80
2019-03-31T12:35:07.915Z,47.00
2019-03-31T12:37:42.655Z,46.00
2019-03-31T12:40:15.459Z,44.90
2019-03-31T12:42:45.829Z,43.80
2019-03-31T12:45:15.875Z,40.70
2019-03-31T12:47:45.915Z,44.20
2019-03-31T12:50:15.934Z,43.90
2019-03-31T12:52:49.452Z,40.00
2019-03-31T12:55:17.953Z,39.20
2019-03-31T12:57:51.532Z,41.50
2019-03-31T13:00:20.189Z,38.20
2019-03-31T13:02:50.246Z,39.40
2019-03-31T13:05:20.619Z,39.30
2019-03-31T13:07:56.508Z,40.00
2019-03-31T13:10:22.823Z,38.20
2019-03-31T13:12:53.128Z,38.80
2019-03-31T13:15:23.228Z,41.20
2019-03-31T13:17:53.347Z,41.40
2019-03-31T13:20:23.677Z,42.90
2019-03-31T13:22:53.691Z,41.60
2019-03-31T13:25:23.900Z,41.20
2019-03-31T13:27:54.247Z,41.40
2019-03-31T13:30:24.564Z,42.20
2019-03-31T13:32:54.531Z,39.50
2019-03-31T13:35:24.905Z,40.00
2019-03-31T13:37:54.816Z,41.90
2019-03-31T13:40:25.180Z,41.00
2019-03-31T13:42:55.436Z,41.00
2019-03-31T13:45:25.417Z,39.80
2019-03-31T13:47:58.505Z,41.10
2019-03-31T13:50:27.527Z,40.80
2019-03-31T13:52:57.655Z,38.80
2019-03-31T13:55:27.912Z,39.30
2019-03-31T13:57:58.504Z,39.40
2019-03-31T14:00:37.533Z,41.20
2019-03-31T14:03:08.579Z,40.00
2019-03-31T14:05:38.741Z,38.30
2019-03-31T14:08:09.037Z,39.20
2019-03-31T14:10:39.214Z,37.30
2019-03-31T14:13:09.356Z,37.90
2019-03-31T14:15:39.446Z,37.00
2019-03-31T14:18:09.643Z,36.60
2019-03-31T14:20:39.797Z,36.40
2019-03-31T14:23:09.953Z,36.80
2019-03-31T14:25:40.208Z,37.00
2019-03-31T14:28:10.337Z,36.80
2019-03-31T14:30:40.371Z,35.20
2019-03-31T14:33:10.797Z,35.80
2019-03-31T14:35:41.050Z,36.70
2019-03-31T14:38:11.246Z,36.60
2019-03-31T14:40:41.516Z,36.30
2019-03-31T14:43:11.749Z,36.90
2019-03-31T14:45:42.112Z,36.20
2019-03-31T14:48:12.566Z,35.00
2019-03-31T14:50:42.764Z,36.70
2019-03-31T14:53:13.073Z,37.50
2019-03-31T14:55:43.160Z,35.90
2019-03-31T14:58:13.272Z,35.30
2019-03-31T15:00:43.726Z,36.50
2019-03-31T15:03:13.886Z,36.70
2019-03-31T15:05:44.067Z,36.90
2019-03-31T15:08:14.301Z,37.00
2019-03-31T15:10:44.951Z,35.80
2019-03-31T15:13:15.383Z,36.10
2019-03-31T15:15:45.512Z,37.00
2019-03-31T15:18:15.852Z,36.40
2019-03-31T15:20:46.159Z,36.20
2019-03-31T15:23:16.483Z,34.90
2019-03-31T15:25:47.049Z,35.10
2019-03-31T15:28:17.558Z,34.60
2019-03-31T15:30:48.082Z,35.70
2019-03-31T15:33:18.983Z,35.20
2019-03-31T15:35:49.265Z,35.50
2019-03-31T15:38:19.571Z,34.50
2019-03-31T15:40:49.645Z,33.30
2019-03-31T15:43:20.027Z,33.60
2019-03-31T15:45:50.240Z,32.60
2019-03-31T15:48:20.569Z,29.90
2019-03-31T15:50:50.821Z,29.70
2019-03-31T15:53:21.370Z,30.80
2019-03-31T15:55:51.712Z,28.70
2019-03-31T15:58:21.774Z,28.30
2019-03-31T16:00:52.043Z,27.30
2019-03-31T16:03:22.453Z,27.50
2019-03-31T16:05:52.741Z,26.50
2019-03-31T16:08:22.523Z,26.70
2019-03-31T16:10:52.029Z,28.40
2019-03-31T16:13:22.342Z,27.20
2019-03-31T16:15:52.215Z,28.20
2019-03-31T16:18:21.723Z,27.30
2019-03-31T16:20:51.319Z,26.50
2019-03-31T16:23:20.929Z,27.60
2019-03-31T16:25:54.110Z,26.90
2019-03-31T16:28:23.810Z,27.00
2019-03-31T16:30:53.840Z,26.20
2019-03-31T16:33:23.489Z,27.10
2019-03-31T16:35:53.225Z,27.10
2019-03-31T16:38:25.586Z,26.40
2019-03-31T16:40:54.038Z,25.60
2019-03-31T16:43:23.745Z,25.30
2019-03-31T16:45:53.335Z,25.20
2019-03-31T16:48:22.990Z,26.10
2019-03-31T16:50:52.568Z,27.50
2019-03-31T16:53:22.484Z,28.80
2019-03-31T16:55:52.345Z,29.90
2019-03-31T16:58:21.976Z,30.50
2019-03-31T17:00:51.709Z,32.40
2019-03-31T17:03:21.400Z,32.60
2019-03-31T17:05:51.399Z,33.30
2019-03-31T17:08:21.029Z,35.80
2019-03-31T17:10:50.477Z,35.20
2019-03-31T17:13:20.005Z,37.20
2019-03-31T17:15:49.785Z,38.10
2019-03-31T17:18:20.058Z,37.50
2019-03-31T17:20:49.837Z,38.90
2019-03-31T17:23:22.134Z,39.20
2019-03-31T17:25:51.833Z,40.80
2019-03-31T17:28:21.655Z,42.00
2019-03-31T17:30:51.681Z,43.30
2019-03-31T17:33:21.942Z,43.40
2019-03-31T17:35:52.177Z,46.00
2019-03-31T17:38:22.417Z,50.20
2019-03-31T17:40:52.593Z,52.50
2019-03-31T17:43:22.636Z,61.30
2019-03-31T17:45:52.380Z,72.10
2019-03-31T17:48:22.242Z,89.00
2019-03-31T17:50:52.296Z,95.80
2019-03-31T17:53:21.971Z,99.90
2019-03-31T17:55:52.030Z,99.90
2019-03-31T17:58:21.873Z,99.90
2019-03-31T18:00:52.006Z,99.90
2019-03-31T18:03:21.870Z,99.90
2019-03-31T18:05:52.158Z,99.90
2019-03-31T18:08:21.822Z,99.90
2019-03-31T18:10:51.994Z,99.90
2019-03-31T18:13:21.965Z,99.90
2019-03-31T18:15:51.978Z,99.90
2019-03-31T18:18:21.749Z,99.90
2019-03-31T18:20:51.450Z,99.90
2019-03-31T18:23:21.214Z,99.90
2019-03-31T18:25:50.858Z,99.90
2019-03-31T18:28:20.804Z,99.90
2019-03-31T18:30:50.469Z,99.90
2019-03-31T18:33:20.196Z,99.90
2019-03-31T18:35:50.216Z,99.90
2019-03-31T18:38:20.005Z,99.90
2019-03-31T18:40:49.746Z,99.90
2019-03-31T18:43:19.800Z,99.90
2019-03-31T18:45:49.391Z,99.90
2019-03-31T18:48:19.245Z,99.90
2019-03-31T18:50:49.201Z,99.90
2019-03-31T18:53:32.470Z,99.90
2019-03-31T18:56:11.676Z,99.90
2019-03-31T18:59:18.940Z,99.90
2019-03-31T19:02:03.559Z,99.90
2019-03-31T19:04:56.222Z,99.90
2019-03-31T19:07:43.619Z,99.90
2019-03-31T19:10:49.697Z,99.90
2019-03-31T19:13:54.861Z,99.90
2019-03-31T19:16:30.622Z,99.90
2019-03-31T19:19:10.967Z,99.90
2019-03-31T19:21:47.957Z,99.90
2019-03-31T19:24:41.820Z,99.90
2019-03-31T19:27:33.965Z,99.90
2019-03-31T19:30:21.468Z,99.90
2019-03-31T19:32:56.078Z,99.90
2019-03-31T19:35:53.738Z,99.90
2019-03-31T19:38:48.225Z,99.90
2019-03-31T19:41:39.908Z,99.90
2019-03-31T19:44:32.277Z,99.90
2019-03-31T19:47:24.215Z,99.90
2019-03-31T19:50:13.408Z,99.90
2019-03-31T19:53:05.722Z,99.90
2019-03-31T19:55:46.747Z,99.90
2019-03-31T19:58:31.272Z,99.90
2019-03-31T20:01:21.226Z,99.90
2019-03-31T20:04:28.293Z,99.90
2019-03-31T20:07:07.049Z,99.90
2019-03-31T20:09:59.236Z,99.90
2019-03-31T20:12:38.738Z,99.90
2019-03-31T20:15:32.687Z,99.90
2019-03-31T20:18:30.633Z,99.90
2019-03-31T20:21:12.914Z,99.90
2019-03-31T20:23:54.196Z,99.90
2019-03-31T20:26:51.939Z,99.90
2019-03-31T20:29:50.679Z,99.90
2019-03-31T20:32:51.490Z,99.90
2019-03-31T20:35:46.402Z,99.90
2019-03-31T20:38:22.810Z,99.90
2019-03-31T20:41:11.509Z,99.90
2019-03-31T20:43:57.712Z,99.90
2019-03-31T20:46:27.253Z,99.90
2019-03-31T20:48:56.755Z,99.90
2019-03-31T20:51:26.443Z,99.90
2019-03-31T20:53:55.926Z,99.90
2019-03-31T20:56:25.892Z,99.90
2019-03-31T20:58:55.586Z,99.90
2019-03-31T21:01:25.290Z,99.90
2019-03-31T21:03:55.020Z,99.90
2019-03-31T21:06:24.876Z,99.90
2019-03-31T21:08:54.551Z,99.90
2019-03-31T21:11:24.175Z,99.90
2019-03-31T21:13:56.774Z,99.90
2019-03-31T21:16:25.203Z,99.90
2019-03-31T21:18:55.213Z,99.90
2019-03-31T21:21:24.987Z,99.90
2019-03-31T21:23:54.712Z,99.90
2019-03-31T21:26:24.370Z,99.90
2019-03-31T21:28:53.920Z,99.90
2019-03-31T21:31:23.433Z,99.90
2019-03-31T21:33:53.041Z,99.90
2019-03-31T21:36:22.586Z,99.90
2019-03-31T21:38:52.067Z,99.90
2019-03-31T21:41:21.620Z,99.90
2019-03-31T21:43:51.155Z,99.90
2019-03-31T21:46:20.658Z,99.90
2019-03-31T21:48:52.785Z,99.90
2019-03-31T21:51:22.194Z,99.90
2019-03-31T21:53:51.625Z,99.90
2019-03-31T21:56:20.990Z,99.90
2019-03-31T21:58:50.532Z,99.90
2019-03-31T22:01:19.916Z,99.90
2019-03-31T22:03:49.588Z,99.90
2019-03-31T22:06:19.067Z,99.90
2019-03-31T22:08:48.759Z,99.90
2019-03-31T22:11:18.111Z,99.90
2019-03-31T22:13:47.875Z,99.90
2019-03-31T22:16:17.526Z,99.90
2019-03-31T22:18:47.038Z,99.90
2019-03-31T22:21:16.380Z,99.90
2019-03-31T22:23:57.350Z,99.90
2019-03-31T22:26:19.643Z,99.90
2019-03-31T22:28:49.812Z,99.90
2019-03-31T22:31:19.430Z,99.90
2019-03-31T22:33:48.999Z,99.90
2019-03-31T22:36:21.346Z,99.90
2019-03-31T22:38:52.100Z,99.90
2019-03-31T22:41:21.706Z,99.90
2019-03-31T22:43:51.247Z,99.90
2019-03-31T22:46:20.722Z,99.90
2019-03-31T22:48:50.167Z,99.90
2019-03-31T22:51:19.597Z,99.90
2019-03-31T22:53:49.170Z,99.90
2019-03-31T22:56:18.774Z,99.90
2019-03-31T22:58:48.206Z,99.90
2019-03-31T23:01:17.954Z,99.90
2019-03-31T23:03:47.471Z,99.90
2019-03-31T23:06:16.929Z,99.90
2019-03-31T23:08:46.525Z,99.90
2019-03-31T23:11:16.227Z,99.90
2019-03-31T23:13:45.579Z,99.90
2019-03-31T23:16:15.028Z,99.90
2019-03-31T23:18:44.604Z,99.90
2019-03-31T23:21:16.443Z,99.90
2019-03-31T23:23:45.822Z,99.90
2019-03-31T23:26:15.324Z,99.90
2019-03-31T23:28:47.652Z,99.90
2019-03-31T23:31:17.822Z,99.90
2019-03-31T23:33:47.329Z,99.90
2019-03-31T23:36:16.846Z,99.90
2019-03-31T23:38:46.201Z,99.90
2019-03-31T23:41:15.673Z,99.90
2019-03-31T23:43:45.051Z,99.90
2019-03-31T23:46:14.571Z,99.90
2019-03-31T23:48:44.246Z,99.90
2019-03-31T23:51:14.057Z,99.90
2019-03-31T23:53:43.511Z,99.90
2019-03-31T23:56:12.983Z,99.90
2019-03-31T23:58:42.372Z,99.90
